createdAt,value
2022-10-24T00:02:16.751Z,100110.56
2022-10-24T00:04:43.472Z,100108.88
2022-10-24T00:07:10.121Z,100112.59
2022-10-24T00:09:37.087Z,100111.91
2022-10-24T00:12:04.087Z,100112.53
2022-10-24T00:14:30.487Z,100108.81
2022-10-24T00:16:57.269Z,100104.59
2022-10-24T00:19:23.578Z,100101.53
2022-10-24T00:21:49.888Z,100107.44
2022-10-24T00:24:16.224Z,100100.47
2022-10-24T00:26:42.637Z,100111.69
2022-10-24T00:29:09.210Z,100109.63
2022-10-24T00:31:35.784Z,100112.31
2022-10-24T00:34:02.650Z,100121.56
2022-10-24T00:36:29.203Z,100120.50
2022-10-24T00:38:55.539Z,100121.13
2022-10-24T00:41:25.690Z,100112.59
2022-10-24T00:44:17.309Z,100105.88
2022-10-24T00:46:48.128Z,100102.69
2022-10-24T00:49:21.050Z,100112.09
2022-10-24T00:51:51.676Z,100112.66
2022-10-24T00:54:18.457Z,100102.06
2022-10-24T00:56:53.531Z,100101.19
2022-10-24T00:59:20.612Z,100104.75
2022-10-24T01:01:47.548Z,100103.19
2022-10-24T01:04:14.357Z,100096.13
2022-10-24T01:06:46.680Z,100085.69
2022-10-24T01:09:24.484Z,100091.25
2022-10-24T01:12:24.671Z,100099.78
2022-10-24T01:15:00.204Z,100092.28
2022-10-24T01:17:40.620Z,100090.28
2022-10-24T01:20:19.107Z,100094.66
2022-10-24T01:23:07.287Z,100087.06
2022-10-24T01:25:59.030Z,100079.78
2022-10-24T01:28:34.816Z,100074.63
2022-10-24T01:31:12.524Z,100073.63
2022-10-24T01:33:48.741Z,100066.03
2022-10-24T01:36:20.878Z,100075.25
2022-10-24T01:38:59.444Z,100068.84
2022-10-24T01:41:29.885Z,100061.97
2022-10-24T01:44:05.669Z,100059.97
2022-10-24T01:46:36.091Z,100068.69
2022-10-24T01:49:23.059Z,100067.28
2022-10-24T01:51:54.265Z,100056.31
2022-10-24T01:54:21.376Z,100050.03
2022-10-24T01:56:47.690Z,100055.28
2022-10-24T01:59:27.955Z,100052.34
2022-10-24T02:02:03.249Z,100064.34
2022-10-24T02:04:32.424Z,100065.03
2022-10-24T02:07:02.663Z,100059.72
2022-10-24T02:09:32.647Z,100057.91
2022-10-24T02:11:59.883Z,100068.34
2022-10-24T02:14:40.647Z,100075.84
2022-10-24T02:17:07.398Z,100064.56
2022-10-24T02:19:33.880Z,100066.19
2022-10-24T02:22:10.220Z,100066.50
2022-10-24T02:24:50.474Z,100056.34
2022-10-24T02:27:24.439Z,100067.78
2022-10-24T02:29:58.139Z,100067.63
2022-10-24T02:32:31.733Z,100065.66
2022-10-24T02:34:59.304Z,100063.19
2022-10-24T02:37:28.666Z,100071.09
2022-10-24T02:39:57.175Z,100067.41
2022-10-24T02:42:25.693Z,100067.09
2022-10-24T02:44:52.587Z,100070.03
2022-10-24T02:47:21.469Z,100064.88
2022-10-24T02:49:48.123Z,100062.06
2022-10-24T02:52:15.126Z,100059.13
2022-10-24T02:54:41.457Z,100051.75
2022-10-24T02:57:07.869Z,100053.44
2022-10-24T02:59:34.171Z,100057.75
2022-10-24T03:02:00.506Z,100060.28
2022-10-24T03:04:26.828Z,100043.75
2022-10-24T03:06:53.368Z,100031.41
2022-10-24T03:09:19.852Z,100033.09
2022-10-24T03:11:46.183Z,100028.22
2022-10-24T03:14:12.531Z,100032.09
2022-10-24T03:16:38.986Z,100030.09
2022-10-24T03:19:05.323Z,100036.31
2022-10-24T03:21:31.648Z,100041.69
2022-10-24T03:23:58.078Z,100044.69
2022-10-24T03:26:24.549Z,100046.00
2022-10-24T03:28:50.857Z,100040.75
2022-10-24T03:31:17.159Z,100058.34
2022-10-24T03:33:43.542Z,100056.16
2022-10-24T03:36:09.856Z,100070.84
2022-10-24T03:38:36.152Z,100076.13
2022-10-24T03:41:02.420Z,100076.56
2022-10-24T03:43:28.701Z,100074.19
2022-10-24T03:45:54.995Z,100083.47
2022-10-24T03:48:21.376Z,100084.44
2022-10-24T03:50:47.675Z,100079.94
2022-10-24T03:53:13.974Z,100085.16
2022-10-24T03:55:40.310Z,100085.00
2022-10-24T03:58:06.716Z,100092.59
2022-10-24T04:00:38.796Z,100081.72
2022-10-24T04:03:05.401Z,100076.81
2022-10-24T04:05:31.881Z,100077.91
2022-10-24T04:07:58.281Z,100071.53
2022-10-24T04:10:24.545Z,100066.00
2022-10-24T04:12:50.908Z,100068.53
2022-10-24T04:15:17.292Z,100059.78
2022-10-24T04:17:43.901Z,100061.47
2022-10-24T04:20:10.918Z,100051.56
2022-10-24T04:22:37.291Z,100051.28
2022-10-24T04:25:04.173Z,100049.44
2022-10-24T04:27:30.664Z,100047.53
2022-10-24T04:29:56.948Z,100058.78
2022-10-24T04:32:23.264Z,100054.50
2022-10-24T04:34:49.765Z,100063.13
2022-10-24T04:37:16.116Z,100070.19
2022-10-24T04:39:42.422Z,100053.28
2022-10-24T04:42:08.730Z,100057.16
2022-10-24T04:44:35.023Z,100057.53
2022-10-24T04:47:01.939Z,100056.06
2022-10-24T04:49:28.200Z,100039.75
2022-10-24T04:51:54.513Z,100053.94
2022-10-24T04:54:20.833Z,100055.03
2022-10-24T04:56:47.224Z,100050.50
2022-10-24T04:59:13.520Z,100046.34
2022-10-24T05:01:39.875Z,100055.44
2022-10-24T05:04:06.261Z,100055.09
2022-10-24T05:06:32.609Z,100063.03
2022-10-24T05:08:58.926Z,100074.13
2022-10-24T05:11:25.275Z,100068.59
2022-10-24T05:13:51.746Z,100069.81
2022-10-24T05:16:18.037Z,100074.03
2022-10-24T05:18:44.334Z,100073.19
2022-10-24T05:21:10.800Z,100067.69
2022-10-24T05:23:37.166Z,100057.38
2022-10-24T05:26:03.467Z,100068.91
2022-10-24T05:28:29.791Z,100072.63
2022-10-24T05:30:56.084Z,100060.84
2022-10-24T05:33:23.453Z,100066.56
2022-10-24T05:35:50.887Z,100072.13
2022-10-24T05:38:17.494Z,100073.44
2022-10-24T05:40:43.851Z,100069.41
2022-10-24T05:43:10.161Z,100075.44
2022-10-24T05:45:36.516Z,100077.44
2022-10-24T05:48:02.929Z,100079.16
2022-10-24T05:50:29.981Z,100087.78
2022-10-24T05:52:56.763Z,100085.94
2022-10-24T05:55:23.101Z,100085.44
2022-10-24T05:57:49.391Z,100093.19
2022-10-24T06:00:16.688Z,100086.25
2022-10-24T06:02:43.480Z,100084.75
2022-10-24T06:05:10.644Z,100081.19
2022-10-24T06:07:37.485Z,100080.66
2022-10-24T06:10:05.870Z,100096.50
2022-10-24T06:12:32.985Z,100094.78
2022-10-24T06:15:00.024Z,100099.78
2022-10-24T06:17:26.892Z,100095.59
2022-10-24T06:19:53.229Z,100106.47
2022-10-24T06:22:20.367Z,100109.31
2022-10-24T06:24:46.693Z,100119.56
2022-10-24T06:27:16.555Z,100111.00
2022-10-24T06:29:42.864Z,100113.41
2022-10-24T06:32:09.200Z,100112.97
2022-10-24T06:34:35.570Z,100109.19
2022-10-24T06:37:02.591Z,100114.13
2022-10-24T06:39:28.981Z,100111.25
2022-10-24T06:41:55.295Z,100107.91
2022-10-24T06:44:21.584Z,100118.59
2022-10-24T06:46:48.138Z,100119.47
2022-10-24T06:49:14.903Z,100112.22
2022-10-24T06:51:41.647Z,100113.22
2022-10-24T06:54:08.536Z,100124.00
2022-10-24T06:56:34.837Z,100128.41
2022-10-24T06:59:01.168Z,100117.97
2022-10-24T07:01:27.827Z,100115.75
2022-10-24T07:06:46.648Z,100111.19
2022-10-24T07:09:15.324Z,100114.91
2022-10-24T07:11:43.235Z,100112.06
2022-10-24T07:14:09.731Z,100113.25
2022-10-24T07:16:36.898Z,100119.66
2022-10-24T07:19:04.318Z,100117.97
2022-10-24T07:21:32.414Z,100119.97
2022-10-24T07:23:59.552Z,100118.13
2022-10-24T07:26:27.333Z,100110.84
2022-10-24T07:28:56.142Z,100127.56
2022-10-24T07:31:24.504Z,100131.78
2022-10-24T07:33:52.739Z,100129.44
2022-10-24T07:36:21.127Z,100138.69
2022-10-24T07:38:48.290Z,100134.16
2022-10-24T07:41:15.210Z,100143.94
2022-10-24T07:43:41.779Z,100138.53
2022-10-24T07:46:10.428Z,100132.97
2022-10-24T07:48:38.392Z,100139.19
2022-10-24T07:51:06.979Z,100135.13
2022-10-24T07:53:33.957Z,100141.19
2022-10-24T07:56:01.012Z,100133.25
2022-10-24T07:58:28.065Z,100136.13
2022-10-24T08:00:54.927Z,100144.19
2022-10-24T08:03:22.049Z,100130.69
2022-10-24T08:05:48.443Z,100130.50
2022-10-24T08:13:32.772Z,100132.94
2022-10-24T08:15:59.111Z,100127.88
2022-10-24T08:18:25.423Z,100117.72
2022-10-24T08:20:59.748Z,100112.63
2022-10-24T08:23:26.201Z,100112.06
2022-10-24T08:25:52.872Z,100110.50
2022-10-24T08:28:19.547Z,100106.59
2022-10-24T08:30:45.861Z,100111.50
2022-10-24T08:33:15.871Z,100103.53
2022-10-24T08:35:44.902Z,100111.25
2022-10-24T08:38:12.171Z,100108.00
2022-10-24T08:40:39.636Z,100103.84
2022-10-24T08:43:06.022Z,100102.66
2022-10-24T08:46:13.612Z,100089.75
2022-10-24T08:48:54.091Z,100104.25
2022-10-24T08:51:43.443Z,100110.00
2022-10-24T08:54:23.694Z,100099.31
2022-10-24T08:56:54.428Z,100098.66
2022-10-24T08:59:21.009Z,100089.81
2022-10-24T09:01:52.782Z,100106.25
2022-10-24T09:04:23.708Z,100110.63
2022-10-24T09:06:52.208Z,100102.88
2022-10-24T09:09:29.610Z,100099.22
2022-10-24T09:11:58.349Z,100100.28
2022-10-24T09:14:29.278Z,100104.97
2022-10-24T09:19:53.430Z,100103.09
2022-10-24T09:22:21.919Z,100107.66
2022-10-24T09:24:54.219Z,100103.91
2022-10-24T09:27:25.440Z,100104.72
2022-10-24T09:29:52.483Z,100100.53
2022-10-24T09:32:23.049Z,100107.84
2022-10-24T09:34:50.463Z,100111.13
2022-10-24T09:37:41.249Z,100121.53
2022-10-24T09:40:19.921Z,100118.91
2022-10-24T09:43:12.249Z,100127.06
2022-10-24T09:45:46.462Z,100140.91
2022-10-24T09:48:27.766Z,100139.25
2022-10-24T09:50:57.385Z,100135.63
2022-10-24T09:53:28.085Z,100147.25
2022-10-24T09:56:15.024Z,100154.06
2022-10-24T09:58:42.417Z,100156.25
2022-10-24T10:01:14.955Z,100158.34
2022-10-24T10:03:42.379Z,100158.97
2022-10-24T10:06:18.674Z,100160.38
2022-10-24T10:08:51.117Z,100154.53
2022-10-24T10:11:26.559Z,100151.75
2022-10-24T10:13:55.112Z,100157.03
2022-10-24T10:16:37.803Z,100161.66
2022-10-24T10:19:12.239Z,100167.97
2022-10-24T10:22:00.524Z,100158.44
2022-10-24T10:24:35.864Z,100164.03
2022-10-24T10:27:02.603Z,100163.66
2022-10-24T10:29:28.899Z,100161.06
2022-10-24T10:32:19.387Z,100159.50
2022-10-24T10:34:50.099Z,100167.06
2022-10-24T10:37:29.610Z,100162.56
2022-10-24T10:40:26.037Z,100160.09
2022-10-24T10:43:25.683Z,100168.72
2022-10-24T10:46:14.796Z,100164.94
2022-10-24T10:49:00.032Z,100164.72
2022-10-24T10:51:37.680Z,100171.25
2022-10-24T10:54:37.974Z,100159.06
2022-10-24T10:57:21.196Z,100162.81
2022-10-24T11:00:09.219Z,100167.00
2022-10-24T11:02:54.317Z,100168.47
2022-10-24T11:05:56.682Z,100175.34
2022-10-24T11:08:46.880Z,100166.34
2022-10-24T11:11:19.147Z,100165.72
2022-10-24T11:13:54.433Z,100180.94
2022-10-24T11:16:24.923Z,100177.78
2022-10-24T11:18:53.724Z,100175.47
2022-10-24T11:21:24.313Z,100180.50
2022-10-24T11:24:00.694Z,100190.53
2022-10-24T11:26:37.267Z,100181.53
2022-10-24T11:29:18.444Z,100190.97
2022-10-24T11:31:57.309Z,100187.41
2022-10-24T11:34:32.558Z,100202.03
2022-10-24T11:37:04.523Z,100195.34
2022-10-24T11:39:46.187Z,100194.34
2022-10-24T11:42:25.690Z,100184.94
2022-10-24T11:45:12.627Z,100187.00
2022-10-24T11:48:04.327Z,100187.25
2022-10-24T11:50:30.572Z,100175.00
2022-10-24T11:53:10.709Z,100178.97
2022-10-24T11:55:42.223Z,100180.00
2022-10-24T11:58:15.852Z,100177.50
2022-10-24T12:00:51.214Z,100179.84
2022-10-24T12:03:56.277Z,100183.41
2022-10-24T12:06:42.242Z,100179.00
2022-10-24T12:09:11.516Z,100172.31
2022-10-24T12:11:50.759Z,100170.81
2022-10-24T12:14:22.933Z,100160.78
2022-10-24T12:17:34.671Z,100159.47
2022-10-24T12:20:02.156Z,100165.16
2022-10-24T12:22:35.757Z,100155.06
2022-10-24T12:25:06.500Z,100166.81
2022-10-24T12:27:38.137Z,100166.44
2022-10-24T12:30:10.350Z,100162.00
2022-10-24T12:32:41.805Z,100163.69
2022-10-24T12:35:30.309Z,100164.53
2022-10-24T12:37:57.683Z,100163.28
2022-10-24T12:40:45.485Z,100165.38
2022-10-24T12:43:35.824Z,100168.06
2022-10-24T12:46:15.856Z,100154.47
2022-10-24T12:48:56.291Z,100168.66
2022-10-24T12:51:32.961Z,100162.78
2022-10-24T12:54:02.189Z,100166.56
2022-10-24T12:56:29.497Z,100150.66
2022-10-24T12:58:58.477Z,100141.00
2022-10-24T13:01:31.394Z,100152.13
2022-10-24T13:04:20.570Z,100147.28
2022-10-24T13:06:53.789Z,100142.94
2022-10-24T13:09:34.960Z,100146.25
2022-10-24T13:12:22.784Z,100139.75
2022-10-24T13:15:22.890Z,100148.34
2022-10-24T13:18:26.898Z,100146.03
2022-10-24T13:21:28.886Z,100143.09
2022-10-24T13:24:11.617Z,100149.38
2022-10-24T13:26:46.032Z,100147.50
2022-10-24T13:29:15.838Z,100153.19
2022-10-24T13:31:45.755Z,100154.00
2022-10-24T13:34:23.645Z,100156.34
2022-10-24T13:37:00.051Z,100167.63
2022-10-24T13:39:33.048Z,100155.91
2022-10-24T13:42:07.841Z,100162.19
2022-10-24T13:44:44.171Z,100170.13
2022-10-24T13:47:15.370Z,100149.13
2022-10-24T13:49:50.900Z,100167.72
2022-10-24T13:52:25.928Z,100167.31
2022-10-24T13:54:57.841Z,100164.00
2022-10-24T13:57:37.812Z,100165.66
2022-10-24T14:00:18.245Z,100159.16
2022-10-24T14:02:46.319Z,100177.16
2022-10-24T14:05:43.853Z,100170.00
2022-10-24T14:08:21.432Z,100164.94
2022-10-24T14:10:47.949Z,100174.81
2022-10-24T14:13:17.311Z,100180.25
2022-10-24T14:15:53.597Z,100184.38
2022-10-24T14:18:20.871Z,100178.94
2022-10-24T14:21:00.553Z,100177.47
2022-10-24T14:23:34.605Z,100188.56
2022-10-24T14:26:12.350Z,100178.09
2022-10-24T14:28:51.586Z,100181.84
2022-10-24T14:31:35.056Z,100177.31
2022-10-24T14:34:09.546Z,100174.63
2022-10-24T14:36:38.554Z,100180.91
2022-10-24T14:39:05.709Z,100183.19
2022-10-24T14:41:37.601Z,100192.03
2022-10-24T14:44:05.222Z,100190.94
2022-10-24T14:46:41.351Z,100182.75
2022-10-24T14:49:26.372Z,100193.03
2022-10-24T14:51:55.985Z,100196.56
2022-10-24T14:54:26.873Z,100186.28
2022-10-24T14:56:54.325Z,100193.19
2022-10-24T14:59:43.620Z,100189.00
2022-10-24T15:02:35.644Z,100200.19
2022-10-24T15:05:20.454Z,100203.47
2022-10-24T15:08:09.148Z,100208.53
2022-10-24T15:10:40.486Z,100214.34
2022-10-24T15:13:16.781Z,100196.66
2022-10-24T15:15:48.665Z,100207.75
2022-10-24T15:18:19.928Z,100211.34
2022-10-24T15:20:48.735Z,100209.25
2022-10-24T15:23:24.297Z,100210.94
2022-10-24T15:26:12.311Z,100207.75
2022-10-24T15:29:01.860Z,100211.72
2022-10-24T15:31:28.905Z,100219.56
2022-10-24T15:33:55.523Z,100215.59
2022-10-24T15:36:35.408Z,100216.22
2022-10-24T15:39:17.523Z,100209.50
2022-10-24T15:41:43.983Z,100227.03
2022-10-24T15:44:20.828Z,100226.53
2022-10-24T15:46:48.555Z,100231.53
2022-10-24T15:49:15.349Z,100239.03
2022-10-24T15:51:46.063Z,100239.16
2022-10-24T15:54:18.071Z,100246.81
2022-10-24T15:56:44.363Z,100245.34
2022-10-24T15:59:10.820Z,100245.91
2022-10-24T16:01:41.730Z,100246.69
2022-10-24T16:04:09.611Z,100241.75
2022-10-24T16:06:36.685Z,100243.84
2022-10-24T16:09:04.266Z,100241.88
2022-10-24T16:11:31.972Z,100241.03
2022-10-24T16:13:58.729Z,100244.06
2022-10-24T16:16:25.577Z,100234.13
2022-10-24T16:18:51.962Z,100238.47
2022-10-24T16:21:20.367Z,100239.56
2022-10-24T16:23:48.335Z,100240.50
2022-10-24T16:26:14.812Z,100249.44
2022-10-24T16:28:41.184Z,100254.38
2022-10-24T16:31:07.981Z,100248.91
2022-10-24T16:33:34.360Z,100262.09
2022-10-24T16:36:00.731Z,100270.97
2022-10-24T16:38:27.210Z,100257.16
2022-10-24T16:40:53.982Z,100256.84
2022-10-24T16:43:20.589Z,100259.19
2022-10-24T16:45:57.024Z,100269.78
2022-10-24T16:48:23.488Z,100267.81
2022-10-24T16:50:49.919Z,100277.16
2022-10-24T16:53:18.290Z,100276.31
2022-10-24T16:55:53.198Z,100280.25
2022-10-24T16:58:20.172Z,100274.75
2022-10-24T17:00:47.069Z,100279.41
2022-10-24T17:03:13.668Z,100271.19
2022-10-24T17:05:40.175Z,100275.28
2022-10-24T17:08:06.524Z,100284.81
2022-10-24T17:10:32.832Z,100292.84
2022-10-24T17:13:00.884Z,100288.81
2022-10-24T17:15:27.747Z,100299.78
2022-10-24T17:17:54.181Z,100295.66
2022-10-24T17:20:20.615Z,100289.78
2022-10-24T17:22:47.280Z,100297.59
2022-10-24T17:25:26.177Z,100295.66
2022-10-24T17:27:54.424Z,100290.38
2022-10-24T17:30:24.097Z,100298.69
2022-10-24T17:32:50.567Z,100301.00
2022-10-24T17:35:20.468Z,100293.78
2022-10-24T17:38:06.406Z,100304.13
2022-10-24T17:40:43.778Z,100316.72
2022-10-24T17:43:21.040Z,100314.72
2022-10-24T17:45:48.556Z,100320.19
2022-10-24T17:48:15.804Z,100327.09
2022-10-24T17:50:42.672Z,100328.13
2022-10-24T17:53:11.974Z,100336.63
2022-10-24T17:55:46.210Z,100339.69
2022-10-24T17:58:14.160Z,100340.38
2022-10-24T18:00:40.724Z,100335.31
2022-10-24T18:03:08.406Z,100335.34
2022-10-24T18:05:37.475Z,100350.09
2022-10-24T18:08:05.326Z,100356.72
2022-10-24T18:10:32.244Z,100354.03
2022-10-24T18:15:29.924Z,100364.00
2022-10-24T18:17:56.257Z,100363.16
2022-10-24T18:20:22.554Z,100371.28
2022-10-24T18:22:49.315Z,100366.22
2022-10-24T18:25:20.255Z,100365.38
2022-10-24T18:27:49.676Z,100370.44
2022-10-24T18:30:16.458Z,100368.56
2022-10-24T18:32:42.867Z,100378.22
2022-10-24T18:35:09.305Z,100379.59
2022-10-24T18:37:35.833Z,100365.91
2022-10-24T18:40:04.934Z,100369.09
2022-10-24T18:42:34.914Z,100362.66
2022-10-24T18:45:01.987Z,100373.66
2022-10-24T18:47:29.045Z,100368.06
2022-10-24T18:49:55.959Z,100370.63
2022-10-24T18:52:41.007Z,100366.72
2022-10-24T18:55:21.748Z,100371.59
2022-10-24T18:57:49.626Z,100362.81
2022-10-24T19:00:22.174Z,100363.47
2022-10-24T19:02:53.122Z,100352.31
2022-10-24T19:05:42.700Z,100358.22
2022-10-24T19:08:13.344Z,100362.28
2022-10-24T19:10:40.477Z,100365.03
2022-10-24T19:13:07.615Z,100359.94
2022-10-24T19:15:36.623Z,100365.03
2022-10-24T19:18:02.987Z,100356.38
2022-10-24T19:20:32.188Z,100364.66
2022-10-24T19:22:58.631Z,100356.91
2022-10-24T19:25:24.904Z,100356.72
2022-10-24T19:30:22.986Z,100367.59
2022-10-24T19:32:49.397Z,100364.41
2022-10-24T19:35:17.236Z,100367.44
2022-10-24T19:37:44.767Z,100370.66
2022-10-24T19:40:11.492Z,100375.06
2022-10-24T19:42:37.896Z,100370.50
2022-10-24T19:45:05.931Z,100379.13
2022-10-24T19:47:32.288Z,100384.03
2022-10-24T19:49:58.588Z,100392.16
2022-10-24T19:52:24.901Z,100387.44
2022-10-24T19:54:51.220Z,100384.25
2022-10-24T19:57:17.599Z,100389.13
2022-10-24T19:59:43.902Z,100388.47
2022-10-24T20:02:11.821Z,100382.75
2022-10-24T20:04:40.093Z,100381.91
2022-10-24T20:07:08.196Z,100385.28
2022-10-24T20:09:35.844Z,100383.59
2022-10-24T20:12:03.888Z,100389.66
2022-10-24T20:14:30.391Z,100390.31
2022-10-24T20:16:56.732Z,100371.25
2022-10-24T20:19:23.011Z,100381.06
2022-10-24T20:21:49.346Z,100391.69
2022-10-24T20:24:15.787Z,100391.34
2022-10-24T20:26:42.114Z,100391.53
2022-10-24T20:29:08.666Z,100397.41
2022-10-24T20:31:40.783Z,100403.84
2022-10-24T20:34:11.044Z,100411.09
2022-10-24T20:36:44.391Z,100412.94
2022-10-24T20:39:11.966Z,100417.50
2022-10-24T20:41:38.415Z,100418.03
2022-10-24T20:44:06.618Z,100419.34
2022-10-24T20:46:32.940Z,100419.97
2022-10-24T20:48:59.220Z,100424.50
2022-10-24T20:51:25.603Z,100422.31
2022-10-24T20:53:52.349Z,100429.41
2022-10-24T20:56:22.343Z,100433.28
2022-10-24T20:58:50.614Z,100438.00
2022-10-24T21:01:23.021Z,100440.19
2022-10-24T21:03:50.836Z,100446.22
2022-10-24T21:06:32.140Z,100447.56
2022-10-24T21:09:00.747Z,100455.50
2022-10-24T21:11:29.201Z,100454.50
2022-10-24T21:14:01.237Z,100454.16
2022-10-24T21:16:28.343Z,100459.19
2022-10-24T21:18:54.873Z,100460.88
2022-10-24T21:21:22.239Z,100455.63
2022-10-24T21:23:53.706Z,100465.38
2022-10-24T21:26:20.629Z,100458.97
2022-10-24T21:28:47.135Z,100462.84
2022-10-24T21:31:16.436Z,100467.25
2022-10-24T21:33:43.667Z,100471.44
2022-10-24T21:36:19.253Z,100474.47
2022-10-24T21:38:47.093Z,100460.97
2022-10-24T21:41:13.829Z,100474.63
2022-10-24T21:43:41.823Z,100479.16
2022-10-24T21:46:22.312Z,100486.88
2022-10-24T21:48:50.196Z,100485.53
2022-10-24T21:51:21.132Z,100489.69
2022-10-24T21:53:53.393Z,100480.09
2022-10-24T21:56:22.185Z,100482.41
2022-10-24T21:58:50.348Z,100493.97
2022-10-24T22:01:19.502Z,100487.06
2022-10-24T22:03:46.548Z,100488.75
2022-10-24T22:06:15.408Z,100498.88
2022-10-24T22:08:42.610Z,100513.03
2022-10-24T22:11:11.707Z,100518.75
2022-10-24T22:13:38.665Z,100513.13
2022-10-24T22:16:06.164Z,100520.44
2022-10-24T22:18:33.633Z,100516.34
2022-10-24T22:21:01.942Z,100516.66
2022-10-24T22:23:29.494Z,100523.16
2022-10-24T22:25:57.529Z,100523.47
2022-10-24T22:28:24.946Z,100524.31
2022-10-24T22:30:51.609Z,100521.09
2022-10-24T22:33:39.098Z,100521.84
2022-10-24T22:36:36.302Z,100519.13
2022-10-24T22:39:03.665Z,100521.47
2022-10-24T22:41:30.432Z,100524.00
2022-10-24T22:43:57.106Z,100529.41
2022-10-24T22:46:48.576Z,100538.84
2022-10-24T22:49:27.580Z,100545.59
2022-10-24T22:51:54.179Z,100542.50
2022-10-24T22:54:25.038Z,100544.97
2022-10-24T22:56:51.800Z,100542.66
2022-10-24T22:59:18.371Z,100544.06
2022-10-24T23:02:19.144Z,100559.34
2022-10-24T23:04:50.957Z,100554.69
2022-10-24T23:07:27.654Z,100546.41
2022-10-24T23:09:54.395Z,100559.59
2022-10-24T23:12:22.225Z,100565.00
2022-10-24T23:14:50.008Z,100563.59
2022-10-24T23:17:27.789Z,100562.88
2022-10-24T23:19:55.634Z,100566.88
2022-10-24T23:22:26.588Z,100561.50
2022-10-24T23:24:58.643Z,100563.03
2022-10-24T23:27:34.215Z,100558.56
2022-10-24T23:30:24.360Z,100555.09
2022-10-24T23:32:51.039Z,100565.34
2022-10-24T23:35:19.200Z,100572.97
2022-10-24T23:37:50.744Z,100565.13
2022-10-24T23:40:16.994Z,100565.44
2022-10-24T23:42:44.524Z,100562.88
2022-10-24T23:45:15.688Z,100571.78
2022-10-24T23:47:45.105Z,100575.13
2022-10-24T23:50:20.860Z,100567.19
2022-10-24T23:52:59.547Z,100573.19
2022-10-24T23:55:26.222Z,100569.63
2022-10-24T23:57:52.512Z,100567.38
